sensor_id;sensor_type;location;lat;lon;timestamp;P1;durP1;ratioP1;P2;durP2;ratioP2
20375;SDS011;10347;51.828;6.466;2023-03-01T00:00:04;5.90;;;4.97;;
20375;SDS011;10347;51.828;6.466;2023-03-01T00:02:32;5.50;;;4.50;;
20375;SDS011;10347;51.828;6.466;2023-03-01T00:04:57;7.07;;;5.35;;
20375;SDS011;10347;51.828;6.466;2023-03-01T00:07:23;6.75;;;5.38;;
20375;SDS011;10347;51.828;6.466;2023-03-01T00:09:48;5.90;;;4.75;;
20375;SDS011;10347;51.828;6.466;2023-03-01T00:12:14;6.88;;;4.90;;
20375;SDS011;10347;51.828;6.466;2023-03-01T00:14:39;5.07;;;4.57;;
20375;SDS011;10347;51.828;6.466;2023-03-01T00:17:05;6.65;;;4.78;;
20375;SDS011;10347;51.828;6.466;2023-03-01T00:19:31;5.25;;;4.65;;
20375;SDS011;10347;51.828;6.466;2023-03-01T00:21:57;5.47;;;4.55;;
20375;SDS011;10347;51.828;6.466;2023-03-01T00:24:22;6.10;;;4.95;;
20375;SDS011;10347;51.828;6.466;2023-03-01T00:26:48;4.90;;;4.40;;
20375;SDS011;10347;51.828;6.466;2023-03-01T00:29:17;4.82;;;4.43;;
20375;SDS011;10347;51.828;6.466;2023-03-01T00:31:42;5.93;;;4.57;;
20375;SDS011;10347;51.828;6.466;2023-03-01T00:34:08;4.85;;;4.35;;
20375;SDS011;10347;51.828;6.466;2023-03-01T00:36:35;8.27;;;5.25;;
20375;SDS011;10347;51.828;6.466;2023-03-01T00:39:02;6.57;;;4.75;;
20375;SDS011;10347;51.828;6.466;2023-03-01T00:41:29;5.75;;;4.82;;
20375;SDS011;10347;51.828;6.466;2023-03-01T00:43:55;6.30;;;4.93;;
20375;SDS011;10347;51.828;6.466;2023-03-01T00:46:22;7.78;;;5.10;;
20375;SDS011;10347;51.828;6.466;2023-03-01T00:48:49;5.65;;;4.65;;
20375;SDS011;10347;51.828;6.466;2023-03-01T00:51:16;5.88;;;4.55;;
20375;SDS011;10347;51.828;6.466;2023-03-01T00:53:46;6.38;;;4.95;;
20375;SDS011;10347;51.828;6.466;2023-03-01T00:56:13;5.18;;;4.18;;
20375;SDS011;10347;51.828;6.466;2023-03-01T00:58:40;5.78;;;4.75;;
20375;SDS011;10347;51.828;6.466;2023-03-01T01:01:09;8.05;;;5.20;;
20375;SDS011;10347;51.828;6.466;2023-03-01T01:03:47;8.35;;;4.93;;
20375;SDS011;10347;51.828;6.466;2023-03-01T01:06:33;7.18;;;5.05;;
20375;SDS011;10347;51.828;6.466;2023-03-01T01:09:01;6.47;;;4.97;;
20375;SDS011;10347;51.828;6.466;2023-03-01T01:11:28;5.78;;;5.05;;
20375;SDS011;10347;51.828;6.466;2023-03-01T01:13:54;6.72;;;5.30;;
20375;SDS011;10347;51.828;6.466;2023-03-01T01:16:21;5.85;;;4.68;;
20375;SDS011;10347;51.828;6.466;2023-03-01T01:18:48;6.22;;;5.43;;
20375;SDS011;10347;51.828;6.466;2023-03-01T01:21:16;7.32;;;4.82;;
20375;SDS011;10347;51.828;6.466;2023-03-01T01:23:44;6.03;;;4.60;;
20375;SDS011;10347;51.828;6.466;2023-03-01T01:26:11;5.55;;;4.63;;
20375;SDS011;10347;51.828;6.466;2023-03-01T01:28:43;8.35;;;5.15;;
20375;SDS011;10347;51.828;6.466;2023-03-01T01:31:12;11.38;;;6.05;;
20375;SDS011;10347;51.828;6.466;2023-03-01T01:33:37;9.65;;;5.00;;
20375;SDS011;10347;51.828;6.466;2023-03-01T01:36:04;5.95;;;4.63;;
20375;SDS011;10347;51.828;6.466;2023-03-01T01:38:30;5.97;;;4.82;;
20375;SDS011;10347;51.828;6.466;2023-03-01T01:40:56;5.35;;;4.85;;
20375;SDS011;10347;51.828;6.466;2023-03-01T01:43:26;6.25;;;5.20;;
20375;SDS011;10347;51.828;6.466;2023-03-01T01:45:55;5.40;;;4.78;;
20375;SDS011;10347;51.828;6.466;2023-03-01T01:48:27;7.47;;;4.63;;
20375;SDS011;10347;51.828;6.466;2023-03-01T01:51:05;7.65;;;5.13;;
20375;SDS011;10347;51.828;6.466;2023-03-01T01:53:35;6.78;;;5.05;;
20375;SDS011;10347;51.828;6.466;2023-03-01T01:56:02;6.88;;;4.60;;
20375;SDS011;10347;51.828;6.466;2023-03-01T01:58:30;6.85;;;4.97;;
20375;SDS011;10347;51.828;6.466;2023-03-01T02:00:56;6.05;;;5.00;;
20375;SDS011;10347;51.828;6.466;2023-03-01T02:03:23;9.02;;;5.43;;
20375;SDS011;10347;51.828;6.466;2023-03-01T02:05:55;5.10;;;4.60;;
20375;SDS011;10347;51.828;6.466;2023-03-01T02:08:42;8.35;;;5.07;;
20375;SDS011;10347;51.828;6.466;2023-03-01T02:11:10;6.07;;;4.78;;
20375;SDS011;10347;51.828;6.466;2023-03-01T02:13:39;7.18;;;5.47;;
20375;SDS011;10347;51.828;6.466;2023-03-01T02:16:08;6.65;;;5.10;;
20375;SDS011;10347;51.828;6.466;2023-03-01T02:18:36;5.78;;;4.60;;
20375;SDS011;10347;51.828;6.466;2023-03-01T02:21:06;5.75;;;4.88;;
20375;SDS011;10347;51.828;6.466;2023-03-01T02:23:42;7.20;;;5.05;;
20375;SDS011;10347;51.828;6.466;2023-03-01T02:26:10;5.03;;;4.53;;
20375;SDS011;10347;51.828;6.466;2023-03-01T02:28:53;4.65;;;4.20;;
20375;SDS011;10347;51.828;6.466;2023-03-01T02:31:19;5.82;;;4.88;;
20375;SDS011;10347;51.828;6.466;2023-03-01T02:34:05;4.70;;;4.30;;
20375;SDS011;10347;51.828;6.466;2023-03-01T02:37:15;5.68;;;5.05;;
20375;SDS011;10347;51.828;6.466;2023-03-01T02:39:29;6.47;;;5.50;;
20375;SDS011;10347;51.828;6.466;2023-03-01T02:42:07;7.18;;;5.07;;
20375;SDS011;10347;51.828;6.466;2023-03-01T02:44:39;6.03;;;5.22;;
20375;SDS011;10347;51.828;6.466;2023-03-01T02:47:04;5.18;;;4.50;;
20375;SDS011;10347;51.828;6.466;2023-03-01T02:49:32;5.70;;;5.07;;
20375;SDS011;10347;51.828;6.466;2023-03-01T02:57:35;5.85;;;5.00;;
20375;SDS011;10347;51.828;6.466;2023-03-01T03:00:05;6.07;;;4.43;;
20375;SDS011;10347;51.828;6.466;2023-03-01T03:02:34;5.78;;;5.00;;
20375;SDS011;10347;51.828;6.466;2023-03-01T03:05:07;6.00;;;5.43;;
20375;SDS011;10347;51.828;6.466;2023-03-01T03:07:36;5.22;;;4.50;;
20375;SDS011;10347;51.828;6.466;2023-03-01T03:10:03;6.97;;;5.10;;
20375;SDS011;10347;51.828;6.466;2023-03-01T03:12:30;9.40;;;5.65;;
20375;SDS011;10347;51.828;6.466;2023-03-01T03:14:56;8.82;;;4.88;;
20375;SDS011;10347;51.828;6.466;2023-03-01T03:17:22;7.22;;;5.30;;
20375;SDS011;10347;51.828;6.466;2023-03-01T03:19:47;6.28;;;5.53;;
20375;SDS011;10347;51.828;6.466;2023-03-01T03:22:13;6.47;;;5.43;;
20375;SDS011;10347;51.828;6.466;2023-03-01T03:24:38;5.88;;;5.35;;
20375;SDS011;10347;51.828;6.466;2023-03-01T03:27:04;9.13;;;5.60;;
20375;SDS011;10347;51.828;6.466;2023-03-01T03:29:30;6.85;;;5.40;;
20375;SDS011;10347;51.828;6.466;2023-03-01T03:31:56;6.75;;;5.10;;
20375;SDS011;10347;51.828;6.466;2023-03-01T03:34:22;7.20;;;5.53;;
20375;SDS011;10347;51.828;6.466;2023-03-01T03:36:48;6.28;;;5.07;;
20375;SDS011;10347;51.828;6.466;2023-03-01T03:39:21;6.55;;;5.25;;
20375;SDS011;10347;51.828;6.466;2023-03-01T03:41:50;7.05;;;5.63;;
20375;SDS011;10347;51.828;6.466;2023-03-01T03:44:16;6.07;;;5.07;;
20375;SDS011;10347;51.828;6.466;2023-03-01T03:46:42;6.35;;;5.25;;
20375;SDS011;10347;51.828;6.466;2023-03-01T03:49:07;6.40;;;5.75;;
20375;SDS011;10347;51.828;6.466;2023-03-01T03:51:33;5.95;;;5.35;;
20375;SDS011;10347;51.828;6.466;2023-03-01T03:53:58;6.47;;;5.50;;
20375;SDS011;10347;51.828;6.466;2023-03-01T03:56:24;6.57;;;5.55;;
20375;SDS011;10347;51.828;6.466;2023-03-01T03:58:51;8.20;;;5.43;;
20375;SDS011;10347;51.828;6.466;2023-03-01T04:01:17;9.23;;;5.75;;
20375;SDS011;10347;51.828;6.466;2023-03-01T04:03:43;6.80;;;5.38;;
20375;SDS011;10347;51.828;6.466;2023-03-01T04:06:11;5.63;;;5.00;;
20375;SDS011;10347;51.828;6.466;2023-03-01T04:08:38;6.55;;;5.18;;
20375;SDS011;10347;51.828;6.466;2023-03-01T04:11:04;6.03;;;5.28;;
20375;SDS011;10347;51.828;6.466;2023-03-01T04:13:49;6.40;;;5.53;;
20375;SDS011;10347;51.828;6.466;2023-03-01T04:16:15;7.53;;;5.22;;
20375;SDS011;10347;51.828;6.466;2023-03-01T04:18:41;6.72;;;5.82;;
20375;SDS011;10347;51.828;6.466;2023-03-01T04:21:06;6.47;;;5.22;;
20375;SDS011;10347;51.828;6.466;2023-03-01T04:23:32;6.22;;;4.78;;
20375;SDS011;10347;51.828;6.466;2023-03-01T04:25:58;5.53;;;4.97;;
20375;SDS011;10347;51.828;6.466;2023-03-01T04:28:31;7.78;;;5.95;;
20375;SDS011;10347;51.828;6.466;2023-03-01T04:31:14;8.43;;;5.65;;
20375;SDS011;10347;51.828;6.466;2023-03-01T04:33:43;7.53;;;5.18;;
20375;SDS011;10347;51.828;6.466;2023-03-01T04:36:14;6.68;;;5.57;;
20375;SDS011;10347;51.828;6.466;2023-03-01T04:38:42;6.72;;;5.00;;
20375;SDS011;10347;51.828;6.466;2023-03-01T04:41:12;9.25;;;5.75;;
20375;SDS011;10347;51.828;6.466;2023-03-01T04:43:38;7.03;;;5.72;;
20375;SDS011;10347;51.828;6.466;2023-03-01T04:46:05;8.50;;;5.32;;
20375;SDS011;10347;51.828;6.466;2023-03-01T04:48:34;10.73;;;6.20;;
20375;SDS011;10347;51.828;6.466;2023-03-01T04:51:00;7.25;;;5.88;;
20375;SDS011;10347;51.828;6.466;2023-03-01T04:53:28;6.75;;;5.63;;
20375;SDS011;10347;51.828;6.466;2023-03-01T04:55:54;6.15;;;5.13;;
20375;SDS011;10347;51.828;6.466;2023-03-01T04:58:22;6.32;;;5.38;;
20375;SDS011;10347;51.828;6.466;2023-03-01T05:00:51;8.68;;;5.93;;
20375;SDS011;10347;51.828;6.466;2023-03-01T05:03:18;6.88;;;5.65;;
20375;SDS011;10347;51.828;6.466;2023-03-01T05:05:45;6.00;;;5.38;;
20375;SDS011;10347;51.828;6.466;2023-03-01T05:08:13;6.20;;;5.60;;
20375;SDS011;10347;51.828;6.466;2023-03-01T05:10:43;8.68;;;6.13;;
20375;SDS011;10347;51.828;6.466;2023-03-01T05:13:19;7.75;;;5.30;;
20375;SDS011;10347;51.828;6.466;2023-03-01T05:15:46;6.38;;;4.97;;
20375;SDS011;10347;51.828;6.466;2023-03-01T05:18:13;7.03;;;5.75;;
20375;SDS011;10347;51.828;6.466;2023-03-01T05:20:39;5.50;;;4.88;;
20375;SDS011;10347;51.828;6.466;2023-03-01T05:23:05;7.72;;;5.82;;
20375;SDS011;10347;51.828;6.466;2023-03-01T05:25:32;8.50;;;5.63;;
20375;SDS011;10347;51.828;6.466;2023-03-01T05:27:59;7.97;;;5.88;;
20375;SDS011;10347;51.828;6.466;2023-03-01T05:30:29;8.20;;;6.10;;
20375;SDS011;10347;51.828;6.466;2023-03-01T05:32:55;5.88;;;5.28;;
20375;SDS011;10347;51.828;6.466;2023-03-01T05:35:21;9.52;;;5.80;;
20375;SDS011;10347;51.828;6.466;2023-03-01T05:37:47;7.13;;;5.80;;
20375;SDS011;10347;51.828;6.466;2023-03-01T05:40:14;9.38;;;6.20;;
20375;SDS011;10347;51.828;6.466;2023-03-01T05:42:46;6.60;;;5.88;;
20375;SDS011;10347;51.828;6.466;2023-03-01T05:45:18;6.53;;;5.22;;
20375;SDS011;10347;51.828;6.466;2023-03-01T05:47:44;7.97;;;6.28;;
20375;SDS011;10347;51.828;6.466;2023-03-01T05:50:23;8.27;;;6.22;;
20375;SDS011;10347;51.828;6.466;2023-03-01T05:52:52;9.15;;;6.10;;
20375;SDS011;10347;51.828;6.466;2023-03-01T05:55:51;10.55;;;6.32;;
20375;SDS011;10347;51.828;6.466;2023-03-01T05:58:18;8.43;;;6.38;;
20375;SDS011;10347;51.828;6.466;2023-03-01T06:00:44;9.48;;;7.28;;
20375;SDS011;10347;51.828;6.466;2023-03-01T06:03:12;11.23;;;6.65;;
20375;SDS011;10347;51.828;6.466;2023-03-01T06:05:40;7.90;;;6.28;;
20375;SDS011;10347;51.828;6.466;2023-03-01T06:08:06;9.45;;;6.38;;
20375;SDS011;10347;51.828;6.466;2023-03-01T06:10:31;7.78;;;5.95;;
20375;SDS011;10347;51.828;6.466;2023-03-01T06:12:57;8.93;;;6.07;;
20375;SDS011;10347;51.828;6.466;2023-03-01T06:15:24;7.13;;;5.40;;
20375;SDS011;10347;51.828;6.466;2023-03-01T06:17:50;9.27;;;5.82;;
20375;SDS011;10347;51.828;6.466;2023-03-01T06:20:20;6.50;;;5.78;;
20375;SDS011;10347;51.828;6.466;2023-03-01T06:22:47;9.35;;;6.15;;
20375;SDS011;10347;51.828;6.466;2023-03-01T06:25:15;7.72;;;5.93;;
20375;SDS011;10347;51.828;6.466;2023-03-01T06:27:42;6.50;;;5.70;;
20375;SDS011;10347;51.828;6.466;2023-03-01T06:30:09;10.25;;;6.55;;
20375;SDS011;10347;51.828;6.466;2023-03-01T06:32:36;7.82;;;5.93;;
20375;SDS011;10347;51.828;6.466;2023-03-01T06:35:02;7.25;;;5.82;;
20375;SDS011;10347;51.828;6.466;2023-03-01T06:37:29;12.05;;;8.10;;
20375;SDS011;10347;51.828;6.466;2023-03-01T06:39:54;11.48;;;7.38;;
20375;SDS011;10347;51.828;6.466;2023-03-01T06:42:20;7.57;;;6.78;;
20375;SDS011;10347;51.828;6.466;2023-03-01T06:44:46;9.13;;;7.03;;
20375;SDS011;10347;51.828;6.466;2023-03-01T06:47:11;7.60;;;6.40;;
20375;SDS011;10347;51.828;6.466;2023-03-01T06:49:37;7.38;;;6.35;;
20375;SDS011;10347;51.828;6.466;2023-03-01T06:52:02;7.78;;;6.60;;
20375;SDS011;10347;51.828;6.466;2023-03-01T06:54:28;9.35;;;6.38;;
20375;SDS011;10347;51.828;6.466;2023-03-01T06:56:54;7.45;;;6.28;;
20375;SDS011;10347;51.828;6.466;2023-03-01T06:59:19;8.27;;;5.63;;
20375;SDS011;10347;51.828;6.466;2023-03-01T07:01:45;9.60;;;6.65;;
20375;SDS011;10347;51.828;6.466;2023-03-01T07:04:11;7.68;;;5.47;;
20375;SDS011;10347;51.828;6.466;2023-03-01T07:06:38;9.00;;;6.47;;
20375;SDS011;10347;51.828;6.466;2023-03-01T07:09:03;7.68;;;5.90;;
20375;SDS011;10347;51.828;6.466;2023-03-01T07:11:29;9.43;;;6.63;;
20375;SDS011;10347;51.828;6.466;2023-03-01T07:13:54;8.68;;;6.30;;
20375;SDS011;10347;51.828;6.466;2023-03-01T07:16:20;8.18;;;6.10;;
20375;SDS011;10347;51.828;6.466;2023-03-01T07:18:46;7.03;;;5.88;;
20375;SDS011;10347;51.828;6.466;2023-03-01T07:21:13;9.02;;;6.15;;
20375;SDS011;10347;51.828;6.466;2023-03-01T07:23:39;7.55;;;6.10;;
20375;SDS011;10347;51.828;6.466;2023-03-01T07:26:05;7.95;;;6.07;;
20375;SDS011;10347;51.828;6.466;2023-03-01T07:28:31;6.55;;;5.82;;
20375;SDS011;10347;51.828;6.466;2023-03-01T07:31:04;7.10;;;6.13;;
20375;SDS011;10347;51.828;6.466;2023-03-01T07:33:30;7.90;;;6.00;;
20375;SDS011;10347;51.828;6.466;2023-03-01T07:36:00;7.22;;;6.20;;
20375;SDS011;10347;51.828;6.466;2023-03-01T07:38:28;7.13;;;5.72;;
20375;SDS011;10347;51.828;6.466;2023-03-01T07:40:56;7.35;;;6.00;;
20375;SDS011;10347;51.828;6.466;2023-03-01T07:43:23;7.85;;;5.88;;
20375;SDS011;10347;51.828;6.466;2023-03-01T07:45:49;6.75;;;5.97;;
20375;SDS011;10347;51.828;6.466;2023-03-01T07:48:14;7.13;;;5.28;;
20375;SDS011;10347;51.828;6.466;2023-03-01T07:50:40;8.18;;;5.70;;
20375;SDS011;10347;51.828;6.466;2023-03-01T07:53:05;7.55;;;5.85;;
20375;SDS011;10347;51.828;6.466;2023-03-01T07:55:31;7.55;;;5.80;;
20375;SDS011;10347;51.828;6.466;2023-03-01T07:57:57;6.57;;;5.75;;
20375;SDS011;10347;51.828;6.466;2023-03-01T08:00:22;6.85;;;5.78;;
20375;SDS011;10347;51.828;6.466;2023-03-01T08:02:48;8.73;;;6.13;;
20375;SDS011;10347;51.828;6.466;2023-03-01T08:05:13;7.43;;;6.00;;
20375;SDS011;10347;51.828;6.466;2023-03-01T08:07:39;9.10;;;6.00;;
20375;SDS011;10347;51.828;6.466;2023-03-01T08:10:05;8.63;;;6.13;;
20375;SDS011;10347;51.828;6.466;2023-03-01T08:12:31;7.53;;;6.00;;
20375;SDS011;10347;51.828;6.466;2023-03-01T08:14:56;7.40;;;6.20;;
20375;SDS011;10347;51.828;6.466;2023-03-01T08:17:22;9.25;;;5.43;;
20375;SDS011;10347;51.828;6.466;2023-03-01T08:19:47;6.55;;;5.93;;
20375;SDS011;10347;51.828;6.466;2023-03-01T08:22:13;6.88;;;5.60;;
20375;SDS011;10347;51.828;6.466;2023-03-01T08:24:39;7.97;;;6.15;;
20375;SDS011;10347;51.828;6.466;2023-03-01T08:27:04;9.25;;;6.07;;
20375;SDS011;10347;51.828;6.466;2023-03-01T08:29:31;7.43;;;5.70;;
20375;SDS011;10347;51.828;6.466;2023-03-01T08:31:57;6.30;;;5.63;;
20375;SDS011;10347;51.828;6.466;2023-03-01T08:34:22;7.20;;;5.82;;
20375;SDS011;10347;51.828;6.466;2023-03-01T08:36:48;7.72;;;5.97;;
20375;SDS011;10347;51.828;6.466;2023-03-01T08:39:15;6.00;;;5.38;;
20375;SDS011;10347;51.828;6.466;2023-03-01T08:41:43;7.75;;;5.88;;
20375;SDS011;10347;51.828;6.466;2023-03-01T08:44:09;7.22;;;5.80;;
20375;SDS011;10347;51.828;6.466;2023-03-01T08:46:37;6.63;;;5.10;;
20375;SDS011;10347;51.828;6.466;2023-03-01T08:49:12;7.70;;;5.88;;
20375;SDS011;10347;51.828;6.466;2023-03-01T08:51:40;7.18;;;5.50;;
20375;SDS011;10347;51.828;6.466;2023-03-01T08:54:07;5.55;;;4.90;;
20375;SDS011;10347;51.828;6.466;2023-03-01T08:56:36;8.40;;;6.10;;
20375;SDS011;10347;51.828;6.466;2023-03-01T08:59:01;7.00;;;5.90;;
20375;SDS011;10347;51.828;6.466;2023-03-01T09:01:27;8.18;;;6.40;;
20375;SDS011;10347;51.828;6.466;2023-03-01T09:03:53;10.20;;;5.72;;
20375;SDS011;10347;51.828;6.466;2023-03-01T09:06:18;8.10;;;5.95;;
20375;SDS011;10347;51.828;6.466;2023-03-01T09:08:45;7.60;;;5.95;;
20375;SDS011;10347;51.828;6.466;2023-03-01T09:11:13;8.85;;;6.55;;
20375;SDS011;10347;51.828;6.466;2023-03-01T09:13:41;8.48;;;6.10;;
20375;SDS011;10347;51.828;6.466;2023-03-01T09:16:08;7.80;;;5.93;;
20375;SDS011;10347;51.828;6.466;2023-03-01T09:18:34;9.27;;;6.65;;
20375;SDS011;10347;51.828;6.466;2023-03-01T09:21:04;7.82;;;6.22;;
20375;SDS011;10347;51.828;6.466;2023-03-01T09:23:38;5.82;;;5.03;;
20375;SDS011;10347;51.828;6.466;2023-03-01T09:26:09;6.10;;;5.32;;
20375;SDS011;10347;51.828;6.466;2023-03-01T09:28:37;8.30;;;6.15;;
20375;SDS011;10347;51.828;6.466;2023-03-01T09:31:03;9.80;;;6.63;;
20375;SDS011;10347;51.828;6.466;2023-03-01T09:33:29;8.77;;;6.22;;
20375;SDS011;10347;51.828;6.466;2023-03-01T09:36:00;8.85;;;5.90;;
20375;SDS011;10347;51.828;6.466;2023-03-01T09:38:28;7.03;;;6.00;;
20375;SDS011;10347;51.828;6.466;2023-03-01T09:40:54;10.23;;;6.72;;
20375;SDS011;10347;51.828;6.466;2023-03-01T09:46:19;8.32;;;6.47;;
20375;SDS011;10347;51.828;6.466;2023-03-01T09:48:57;7.40;;;6.10;;
20375;SDS011;10347;51.828;6.466;2023-03-01T09:51:34;9.25;;;6.82;;
20375;SDS011;10347;51.828;6.466;2023-03-01T09:54:01;9.23;;;6.40;;
20375;SDS011;10347;51.828;6.466;2023-03-01T10:04:44;7.28;;;5.43;;
20375;SDS011;10347;51.828;6.466;2023-03-01T10:10:34;7.20;;;5.60;;
20375;SDS011;10347;51.828;6.466;2023-03-01T10:12:59;7.82;;;5.60;;
20375;SDS011;10347;51.828;6.466;2023-03-01T10:15:34;8.23;;;5.18;;
20375;SDS011;10347;51.828;6.466;2023-03-01T10:18:16;7.32;;;5.20;;
20375;SDS011;10347;51.828;6.466;2023-03-01T10:20:46;6.22;;;4.97;;
20375;SDS011;10347;51.828;6.466;2023-03-01T10:23:37;6.47;;;5.40;;
20375;SDS011;10347;51.828;6.466;2023-03-01T10:26:07;8.68;;;5.43;;
20375;SDS011;10347;51.828;6.466;2023-03-01T10:31:15;6.38;;;4.75;;
20375;SDS011;10347;51.828;6.466;2023-03-01T10:33:45;7.43;;;5.15;;
20375;SDS011;10347;51.828;6.466;2023-03-01T10:36:12;6.80;;;5.57;;
20375;SDS011;10347;51.828;6.466;2023-03-01T10:38:54;8.55;;;5.32;;
20375;SDS011;10347;51.828;6.466;2023-03-01T10:41:23;7.80;;;5.40;;
20375;SDS011;10347;51.828;6.466;2023-03-01T10:43:51;10.98;;;6.05;;
20375;SDS011;10347;51.828;6.466;2023-03-01T10:51:47;8.65;;;5.55;;
20375;SDS011;10347;51.828;6.466;2023-03-01T10:56:49;7.60;;;5.82;;
20375;SDS011;10347;51.828;6.466;2023-03-01T10:59:38;6.50;;;5.32;;
20375;SDS011;10347;51.828;6.466;2023-03-01T11:07:48;6.30;;;4.95;;
20375;SDS011;10347;51.828;6.466;2023-03-01T11:10:19;7.68;;;5.45;;
20375;SDS011;10347;51.828;6.466;2023-03-01T11:12:47;8.38;;;5.80;;
20375;SDS011;10347;51.828;6.466;2023-03-01T11:15:26;7.90;;;5.55;;
20375;SDS011;10347;51.828;6.466;2023-03-01T11:17:53;7.60;;;5.50;;
20375;SDS011;10347;51.828;6.466;2023-03-01T11:20:23;7.57;;;5.72;;
20375;SDS011;10347;51.828;6.466;2023-03-01T11:23:01;6.30;;;5.25;;
20375;SDS011;10347;51.828;6.466;2023-03-01T11:25:35;8.95;;;5.60;;
20375;SDS011;10347;51.828;6.466;2023-03-01T11:28:04;7.63;;;5.97;;
20375;SDS011;10347;51.828;6.466;2023-03-01T11:33:18;7.57;;;4.93;;
20375;SDS011;10347;51.828;6.466;2023-03-01T11:38:41;7.28;;;5.40;;
20375;SDS011;10347;51.828;6.466;2023-03-01T11:41:11;6.75;;;5.28;;
20375;SDS011;10347;51.828;6.466;2023-03-01T11:54:53;6.40;;;5.07;;
20375;SDS011;10347;51.828;6.466;2023-03-01T12:14:21;8.55;;;6.05;;
20375;SDS011;10347;51.828;6.466;2023-03-01T12:19:56;11.43;;;5.53;;
20375;SDS011;10347;51.828;6.466;2023-03-01T12:25:30;8.80;;;5.90;;
20375;SDS011;10347;51.828;6.466;2023-03-01T12:42:00;8.15;;;6.00;;
20375;SDS011;10347;51.828;6.466;2023-03-01T12:44:32;9.88;;;6.18;;
20375;SDS011;10347;51.828;6.466;2023-03-01T12:47:17;9.07;;;5.78;;
20375;SDS011;10347;51.828;6.466;2023-03-01T12:49:53;8.65;;;5.85;;
20375;SDS011;10347;51.828;6.466;2023-03-01T12:52:35;9.77;;;6.15;;
20375;SDS011;10347;51.828;6.466;2023-03-01T13:00:55;8.48;;;6.10;;
20375;SDS011;10347;51.828;6.466;2023-03-01T13:06:17;7.70;;;6.00;;
20375;SDS011;10347;51.828;6.466;2023-03-01T13:09:14;7.28;;;5.82;;
20375;SDS011;10347;51.828;6.466;2023-03-01T13:11:49;9.10;;;6.05;;
20375;SDS011;10347;51.828;6.466;2023-03-01T13:16:48;7.80;;;5.90;;
20375;SDS011;10347;51.828;6.466;2023-03-01T13:19:16;10.88;;;6.05;;
20375;SDS011;10347;51.828;6.466;2023-03-01T13:21:44;8.82;;;6.63;;
20375;SDS011;10347;51.828;6.466;2023-03-01T13:27:09;12.85;;;7.10;;
20375;SDS011;10347;51.828;6.466;2023-03-01T13:32:24;10.20;;;6.97;;
20375;SDS011;10347;51.828;6.466;2023-03-01T13:34:57;10.55;;;6.50;;
20375;SDS011;10347;51.828;6.466;2023-03-01T13:37:29;11.48;;;8.00;;
20375;SDS011;10347;51.828;6.466;2023-03-01T13:39:57;10.95;;;7.20;;
20375;SDS011;10347;51.828;6.466;2023-03-01T13:42:45;10.40;;;7.13;;
20375;SDS011;10347;51.828;6.466;2023-03-01T13:45:20;8.50;;;6.38;;
20375;SDS011;10347;51.828;6.466;2023-03-01T13:48:10;12.00;;;6.38;;
20375;SDS011;10347;51.828;6.466;2023-03-01T13:50:48;11.82;;;6.95;;
20375;SDS011;10347;51.828;6.466;2023-03-01T13:53:43;9.13;;;6.32;;
20375;SDS011;10347;51.828;6.466;2023-03-01T13:56:18;9.13;;;6.20;;
20375;SDS011;10347;51.828;6.466;2023-03-01T13:58:51;9.48;;;6.25;;
20375;SDS011;10347;51.828;6.466;2023-03-01T14:01:21;11.80;;;6.60;;
20375;SDS011;10347;51.828;6.466;2023-03-01T14:03:54;11.30;;;6.00;;
20375;SDS011;10347;51.828;6.466;2023-03-01T14:06:21;9.98;;;6.30;;
20375;SDS011;10347;51.828;6.466;2023-03-01T14:08:50;9.68;;;6.15;;
20375;SDS011;10347;51.828;6.466;2023-03-01T14:20:03;8.50;;;6.07;;
20375;SDS011;10347;51.828;6.466;2023-03-01T14:22:36;10.35;;;6.32;;
20375;SDS011;10347;51.828;6.466;2023-03-01T14:25:06;9.70;;;6.13;;
20375;SDS011;10347;51.828;6.466;2023-03-01T14:27:50;9.30;;;6.13;;
20375;SDS011;10347;51.828;6.466;2023-03-01T14:30:23;8.75;;;6.55;;
20375;SDS011;10347;51.828;6.466;2023-03-01T14:32:58;13.15;;;6.55;;
20375;SDS011;10347;51.828;6.466;2023-03-01T14:35:26;7.72;;;6.00;;
20375;SDS011;10347;51.828;6.466;2023-03-01T14:37:55;10.07;;;6.90;;
20375;SDS011;10347;51.828;6.466;2023-03-01T14:42:56;9.10;;;6.60;;
20375;SDS011;10347;51.828;6.466;2023-03-01T14:45:24;9.55;;;6.28;;
20375;SDS011;10347;51.828;6.466;2023-03-01T14:47:51;8.73;;;5.95;;
20375;SDS011;10347;51.828;6.466;2023-03-01T14:50:20;8.65;;;6.20;;
20375;SDS011;10347;51.828;6.466;2023-03-01T14:52:50;8.38;;;5.53;;
20375;SDS011;10347;51.828;6.466;2023-03-01T14:55:19;7.30;;;5.15;;
20375;SDS011;10347;51.828;6.466;2023-03-01T14:57:48;6.88;;;5.53;;
20375;SDS011;10347;51.828;6.466;2023-03-01T15:00:17;7.30;;;5.20;;
20375;SDS011;10347;51.828;6.466;2023-03-01T15:02:46;6.70;;;5.25;;
20375;SDS011;10347;51.828;6.466;2023-03-01T15:05:14;5.10;;;4.55;;
20375;SDS011;10347;51.828;6.466;2023-03-01T15:07:43;7.32;;;5.05;;
20375;SDS011;10347;51.828;6.466;2023-03-01T15:10:21;7.03;;;5.35;;
20375;SDS011;10347;51.828;6.466;2023-03-01T15:12:49;6.50;;;4.47;;
20375;SDS011;10347;51.828;6.466;2023-03-01T15:17:54;4.85;;;4.15;;
20375;SDS011;10347;51.828;6.466;2023-03-01T15:20:24;6.50;;;4.70;;
20375;SDS011;10347;51.828;6.466;2023-03-01T15:22:52;5.05;;;4.53;;
20375;SDS011;10347;51.828;6.466;2023-03-01T15:25:21;4.93;;;4.43;;
20375;SDS011;10347;51.828;6.466;2023-03-01T15:27:53;5.68;;;4.80;;
20375;SDS011;10347;51.828;6.466;2023-03-01T15:30:21;6.60;;;4.90;;
20375;SDS011;10347;51.828;6.466;2023-03-01T15:35:49;4.82;;;4.20;;
20375;SDS011;10347;51.828;6.466;2023-03-01T15:41:29;7.65;;;4.97;;
20375;SDS011;10347;51.828;6.466;2023-03-01T15:44:00;4.85;;;4.32;;
20375;SDS011;10347;51.828;6.466;2023-03-01T15:46:39;4.90;;;4.40;;
20375;SDS011;10347;51.828;6.466;2023-03-01T15:52:17;6.68;;;4.03;;
20375;SDS011;10347;51.828;6.466;2023-03-01T15:54:53;8.20;;;4.70;;
20375;SDS011;10347;51.828;6.466;2023-03-01T15:57:20;11.77;;;8.32;;
20375;SDS011;10347;51.828;6.466;2023-03-01T15:59:46;8.73;;;7.72;;
20375;SDS011;10347;51.828;6.466;2023-03-01T16:02:12;9.02;;;5.18;;
20375;SDS011;10347;51.828;6.466;2023-03-01T16:04:38;5.75;;;4.30;;
20375;SDS011;10347;51.828;6.466;2023-03-01T16:07:04;4.72;;;3.97;;
20375;SDS011;10347;51.828;6.466;2023-03-01T16:09:30;5.30;;;4.00;;
20375;SDS011;10347;51.828;6.466;2023-03-01T16:11:56;4.65;;;3.90;;
20375;SDS011;10347;51.828;6.466;2023-03-01T16:14:34;5.53;;;3.88;;
20375;SDS011;10347;51.828;6.466;2023-03-01T16:17:00;5.88;;;4.05;;
20375;SDS011;10347;51.828;6.466;2023-03-01T16:19:25;4.18;;;3.63;;
20375;SDS011;10347;51.828;6.466;2023-03-01T16:21:51;6.88;;;4.32;;
20375;SDS011;10347;51.828;6.466;2023-03-01T16:24:16;5.50;;;3.50;;
20375;SDS011;10347;51.828;6.466;2023-03-01T16:26:42;5.18;;;4.07;;
20375;SDS011;10347;51.828;6.466;2023-03-01T16:29:07;6.63;;;4.25;;
20375;SDS011;10347;51.828;6.466;2023-03-01T16:31:33;5.28;;;3.80;;
20375;SDS011;10347;51.828;6.466;2023-03-01T16:33:59;5.22;;;4.40;;
20375;SDS011;10347;51.828;6.466;2023-03-01T16:36:25;5.00;;;3.83;;
20375;SDS011;10347;51.828;6.466;2023-03-01T16:38:53;5.88;;;3.58;;
20375;SDS011;10347;51.828;6.466;2023-03-01T16:41:20;4.93;;;3.50;;
20375;SDS011;10347;51.828;6.466;2023-03-01T16:43:47;6.03;;;3.80;;
20375;SDS011;10347;51.828;6.466;2023-03-01T16:46:13;4.40;;;3.63;;
20375;SDS011;10347;51.828;6.466;2023-03-01T16:48:41;4.07;;;3.65;;
20375;SDS011;10347;51.828;6.466;2023-03-01T16:51:06;3.50;;;3.20;;
20375;SDS011;10347;51.828;6.466;2023-03-01T16:53:33;3.90;;;3.50;;
20375;SDS011;10347;51.828;6.466;2023-03-01T16:56:04;4.07;;;3.67;;
20375;SDS011;10347;51.828;6.466;2023-03-01T16:58:32;4.63;;;3.85;;
20375;SDS011;10347;51.828;6.466;2023-03-01T17:01:03;4.70;;;3.63;;
20375;SDS011;10347;51.828;6.466;2023-03-01T17:03:33;5.18;;;3.70;;
20375;SDS011;10347;51.828;6.466;2023-03-01T17:06:07;6.63;;;4.00;;